sensor_id;sensor_type;location;lat;lon;timestamp;temperature;humidity
30473;DHT22;17263;48.160;11.452;2023-04-24T00:00:57;10.90;99.90
30473;DHT22;17263;48.160;11.452;2023-04-24T00:03:24;10.90;99.90
30473;DHT22;17263;48.160;11.452;2023-04-24T00:05:50;10.90;99.90
30473;DHT22;17263;48.160;11.452;2023-04-24T00:08:17;10.80;99.90
30473;DHT22;17263;48.160;11.452;2023-04-24T00:10:43;10.80;99.90
30473;DHT22;17263;48.160;11.452;2023-04-24T00:13:09;10.80;99.90
30473;DHT22;17263;48.160;11.452;2023-04-24T00:15:35;10.80;99.90
30473;DHT22;17263;48.160;11.452;2023-04-24T00:18:01;10.70;99.90
30473;DHT22;17263;48.160;11.452;2023-04-24T00:20:28;10.70;99.90
30473;DHT22;17263;48.160;11.452;2023-04-24T00:22:58;10.70;99.90
30473;DHT22;17263;48.160;11.452;2023-04-24T00:25:24;10.70;99.90
30473;DHT22;17263;48.160;11.452;2023-04-24T00:27:50;10.70;99.90
30473;DHT22;17263;48.160;11.452;2023-04-24T00:30:16;10.60;99.90
30473;DHT22;17263;48.160;11.452;2023-04-24T00:32:42;10.60;99.90
30473;DHT22;17263;48.160;11.452;2023-04-24T00:35:08;10.60;99.90
30473;DHT22;17263;48.160;11.452;2023-04-24T00:37:34;10.60;99.90
30473;DHT22;17263;48.160;11.452;2023-04-24T00:40:01;10.50;99.90
30473;DHT22;17263;48.160;11.452;2023-04-24T00:42:28;10.50;99.90
30473;DHT22;17263;48.160;11.452;2023-04-24T00:44:56;10.50;99.90
30473;DHT22;17263;48.160;11.452;2023-04-24T00:47:22;10.60;99.90
30473;DHT22;17263;48.160;11.452;2023-04-24T00:49:48;10.50;99.90
30473;DHT22;17263;48.160;11.452;2023-04-24T00:52:14;10.50;99.90
30473;DHT22;17263;48.160;11.452;2023-04-24T00:54:46;10.50;99.90
30473;DHT22;17263;48.160;11.452;2023-04-24T00:57:14;10.50;99.90
30473;DHT22;17263;48.160;11.452;2023-04-24T00:59:41;10.50;99.90
30473;DHT22;17263;48.160;11.452;2023-04-24T01:02:09;10.50;99.90
30473;DHT22;17263;48.160;11.452;2023-04-24T01:04:36;10.50;99.90
30473;DHT22;17263;48.160;11.452;2023-04-24T01:07:03;10.50;99.90
30473;DHT22;17263;48.160;11.452;2023-04-24T01:09:39;10.40;99.90
30473;DHT22;17263;48.160;11.452;2023-04-24T01:12:06;10.40;99.90
30473;DHT22;17263;48.160;11.452;2023-04-24T01:14:33;10.40;99.90
30473;DHT22;17263;48.160;11.452;2023-04-24T01:16:59;10.40;99.90
30473;DHT22;17263;48.160;11.452;2023-04-24T01:19:26;10.40;99.90
30473;DHT22;17263;48.160;11.452;2023-04-24T01:21:53;10.40;99.90
30473;DHT22;17263;48.160;11.452;2023-04-24T01:24:20;10.30;99.90
30473;DHT22;17263;48.160;11.452;2023-04-24T01:26:46;10.30;99.90
30473;DHT22;17263;48.160;11.452;2023-04-24T01:29:12;10.30;99.90
30473;DHT22;17263;48.160;11.452;2023-04-24T01:31:39;10.20;99.90
30473;DHT22;17263;48.160;11.452;2023-04-24T01:34:06;10.30;99.90
30473;DHT22;17263;48.160;11.452;2023-04-24T01:36:33;10.20;99.90
30473;DHT22;17263;48.160;11.452;2023-04-24T01:39:00;10.30;99.90
30473;DHT22;17263;48.160;11.452;2023-04-24T01:41:27;10.20;99.90
30473;DHT22;17263;48.160;11.452;2023-04-24T01:43:54;10.20;99.90
30473;DHT22;17263;48.160;11.452;2023-04-24T01:46:20;10.20;99.90
30473;DHT22;17263;48.160;11.452;2023-04-24T01:48:46;10.20;99.90
30473;DHT22;17263;48.160;11.452;2023-04-24T01:51:13;10.20;99.90
30473;DHT22;17263;48.160;11.452;2023-04-24T01:53:39;10.10;99.90
30473;DHT22;17263;48.160;11.452;2023-04-24T01:56:05;10.10;99.90
30473;DHT22;17263;48.160;11.452;2023-04-24T01:58:31;10.10;99.90
30473;DHT22;17263;48.160;11.452;2023-04-24T02:00:57;10.10;99.90
30473;DHT22;17263;48.160;11.452;2023-04-24T02:03:25;10.10;99.90
30473;DHT22;17263;48.160;11.452;2023-04-24T02:05:52;10.00;99.90
30473;DHT22;17263;48.160;11.452;2023-04-24T02:08:18;10.10;99.90
30473;DHT22;17263;48.160;11.452;2023-04-24T02:10:44;10.00;99.90
30473;DHT22;17263;48.160;11.452;2023-04-24T02:13:10;10.10;99.90
30473;DHT22;17263;48.160;11.452;2023-04-24T02:15:36;10.10;99.90
30473;DHT22;17263;48.160;11.452;2023-04-24T02:18:02;10.10;99.90
30473;DHT22;17263;48.160;11.452;2023-04-24T02:20:28;10.10;99.90
30473;DHT22;17263;48.160;11.452;2023-04-24T02:22:54;10.10;99.90
30473;DHT22;17263;48.160;11.452;2023-04-24T02:25:20;10.00;99.90
30473;DHT22;17263;48.160;11.452;2023-04-24T02:27:47;10.00;99.90
30473;DHT22;17263;48.160;11.452;2023-04-24T02:30:13;10.00;99.90
30473;DHT22;17263;48.160;11.452;2023-04-24T02:32:39;10.00;99.90
30473;DHT22;17263;48.160;11.452;2023-04-24T02:35:05;10.00;99.90
30473;DHT22;17263;48.160;11.452;2023-04-24T02:37:32;10.00;99.90
30473;DHT22;17263;48.160;11.452;2023-04-24T02:39:58;10.00;99.90
30473;DHT22;17263;48.160;11.452;2023-04-24T02:42:24;10.10;99.90
30473;DHT22;17263;48.160;11.452;2023-04-24T02:44:50;10.10;99.90
30473;DHT22;17263;48.160;11.452;2023-04-24T02:47:17;10.10;99.90
30473;DHT22;17263;48.160;11.452;2023-04-24T02:49:43;10.00;99.90
30473;DHT22;17263;48.160;11.452;2023-04-24T02:52:09;10.00;99.90
30473;DHT22;17263;48.160;11.452;2023-04-24T02:54:35;10.00;99.90
30473;DHT22;17263;48.160;11.452;2023-04-24T02:57:01;10.00;99.90
30473;DHT22;17263;48.160;11.452;2023-04-24T02:59:27;10.00;99.90
30473;DHT22;17263;48.160;11.452;2023-04-24T03:01:54;10.00;99.90
30473;DHT22;17263;48.160;11.452;2023-04-24T03:04:20;10.00;99.90
30473;DHT22;17263;48.160;11.452;2023-04-24T03:06:46;10.00;99.90
30473;DHT22;17263;48.160;11.452;2023-04-24T03:09:12;10.00;99.90
30473;DHT22;17263;48.160;11.452;2023-04-24T03:11:38;10.00;99.90
30473;DHT22;17263;48.160;11.452;2023-04-24T03:14:04;10.00;99.90
30473;DHT22;17263;48.160;11.452;2023-04-24T03:16:30;10.00;99.90
30473;DHT22;17263;48.160;11.452;2023-04-24T03:18:56;10.00;99.90
30473;DHT22;17263;48.160;11.452;2023-04-24T03:21:22;10.00;99.90
30473;DHT22;17263;48.160;11.452;2023-04-24T03:23:48;10.00;99.90
30473;DHT22;17263;48.160;11.452;2023-04-24T03:26:14;10.00;99.90
30473;DHT22;17263;48.160;11.452;2023-04-24T03:28:40;10.00;99.90
30473;DHT22;17263;48.160;11.452;2023-04-24T03:31:06;9.90;99.90
30473;DHT22;17263;48.160;11.452;2023-04-24T03:33:32;10.00;99.90
30473;DHT22;17263;48.160;11.452;2023-04-24T03:35:58;9.90;99.90
30473;DHT22;17263;48.160;11.452;2023-04-24T03:38:24;9.90;99.90
30473;DHT22;17263;48.160;11.452;2023-04-24T03:40:50;9.90;99.90
30473;DHT22;17263;48.160;11.452;2023-04-24T03:43:16;9.80;99.90
30473;DHT22;17263;48.160;11.452;2023-04-24T03:45:42;9.80;99.90
30473;DHT22;17263;48.160;11.452;2023-04-24T03:48:08;9.80;99.90
30473;DHT22;17263;48.160;11.452;2023-04-24T03:50:34;9.80;99.90
30473;DHT22;17263;48.160;11.452;2023-04-24T03:53:00;9.80;99.90
30473;DHT22;17263;48.160;11.452;2023-04-24T03:55:26;9.80;99.90
30473;DHT22;17263;48.160;11.452;2023-04-24T03:57:52;9.80;99.90
30473;DHT22;17263;48.160;11.452;2023-04-24T04:00:18;9.80;99.90
30473;DHT22;17263;48.160;11.452;2023-04-24T04:02:45;9.80;99.90
30473;DHT22;17263;48.160;11.452;2023-04-24T04:05:11;9.80;99.90
30473;DHT22;17263;48.160;11.452;2023-04-24T04:07:37;9.80;99.90
30473;DHT22;17263;48.160;11.452;2023-04-24T04:10:03;9.80;99.90
30473;DHT22;17263;48.160;11.452;2023-04-24T04:12:29;9.70;99.90
30473;DHT22;17263;48.160;11.452;2023-04-24T04:14:55;9.80;99.90
30473;DHT22;17263;48.160;11.452;2023-04-24T04:17:21;9.70;99.90
30473;DHT22;17263;48.160;11.452;2023-04-24T04:19:47;9.70;99.90
30473;DHT22;17263;48.160;11.452;2023-04-24T04:22:13;9.70;99.90
30473;DHT22;17263;48.160;11.452;2023-04-24T04:24:39;9.70;99.90
30473;DHT22;17263;48.160;11.452;2023-04-24T04:27:06;9.70;99.90
30473;DHT22;17263;48.160;11.452;2023-04-24T04:29:33;9.80;99.90
30473;DHT22;17263;48.160;11.452;2023-04-24T04:32:00;9.80;99.90
30473;DHT22;17263;48.160;11.452;2023-04-24T04:34:27;9.70;99.90
30473;DHT22;17263;48.160;11.452;2023-04-24T04:36:53;9.70;99.90
30473;DHT22;17263;48.160;11.452;2023-04-24T04:39:19;9.70;99.90
30473;DHT22;17263;48.160;11.452;2023-04-24T04:41:45;9.70;99.90
30473;DHT22;17263;48.160;11.452;2023-04-24T04:44:14;9.70;99.90
30473;DHT22;17263;48.160;11.452;2023-04-24T04:46:41;9.70;99.90
30473;DHT22;17263;48.160;11.452;2023-04-24T04:49:07;9.70;99.90
30473;DHT22;17263;48.160;11.452;2023-04-24T04:51:34;9.70;99.90
30473;DHT22;17263;48.160;11.452;2023-04-24T04:54:00;9.70;99.90
30473;DHT22;17263;48.160;11.452;2023-04-24T04:56:26;9.70;99.90
30473;DHT22;17263;48.160;11.452;2023-04-24T04:58:52;9.80;99.90
30473;DHT22;17263;48.160;11.452;2023-04-24T05:01:19;9.70;99.90
30473;DHT22;17263;48.160;11.452;2023-04-24T05:03:45;9.80;99.90
30473;DHT22;17263;48.160;11.452;2023-04-24T05:06:11;9.70;99.90
30473;DHT22;17263;48.160;11.452;2023-04-24T05:08:37;9.70;99.90
30473;DHT22;17263;48.160;11.452;2023-04-24T05:11:03;9.70;99.90
30473;DHT22;17263;48.160;11.452;2023-04-24T05:13:29;9.70;99.90
30473;DHT22;17263;48.160;11.452;2023-04-24T05:15:55;9.80;99.90
30473;DHT22;17263;48.160;11.452;2023-04-24T05:18:21;9.80;99.90
30473;DHT22;17263;48.160;11.452;2023-04-24T05:20:47;9.80;99.90
30473;DHT22;17263;48.160;11.452;2023-04-24T05:23:13;9.90;99.90
30473;DHT22;17263;48.160;11.452;2023-04-24T05:25:39;9.90;99.90
30473;DHT22;17263;48.160;11.452;2023-04-24T05:28:06;9.90;99.90
30473;DHT22;17263;48.160;11.452;2023-04-24T05:30:32;9.90;99.90
30473;DHT22;17263;48.160;11.452;2023-04-24T05:32:58;10.00;99.90
30473;DHT22;17263;48.160;11.452;2023-04-24T05:35:24;10.00;99.90
30473;DHT22;17263;48.160;11.452;2023-04-24T05:37:50;10.00;99.90
30473;DHT22;17263;48.160;11.452;2023-04-24T05:40:16;10.00;99.90
30473;DHT22;17263;48.160;11.452;2023-04-24T05:42:42;10.00;99.90
30473;DHT22;17263;48.160;11.452;2023-04-24T05:45:08;10.00;99.90
30473;DHT22;17263;48.160;11.452;2023-04-24T05:47:37;10.10;99.90
30473;DHT22;17263;48.160;11.452;2023-04-24T05:50:03;10.10;99.90
30473;DHT22;17263;48.160;11.452;2023-04-24T05:52:29;10.20;99.90
30473;DHT22;17263;48.160;11.452;2023-04-24T05:54:55;10.20;99.90
30473;DHT22;17263;48.160;11.452;2023-04-24T05:57:21;10.20;99.90
30473;DHT22;17263;48.160;11.452;2023-04-24T05:59:47;10.20;99.90
30473;DHT22;17263;48.160;11.452;2023-04-24T06:02:14;10.20;99.90
30473;DHT22;17263;48.160;11.452;2023-04-24T06:04:40;10.30;99.90
30473;DHT22;17263;48.160;11.452;2023-04-24T06:07:07;10.40;99.90
30473;DHT22;17263;48.160;11.452;2023-04-24T06:09:33;10.50;99.90
30473;DHT22;17263;48.160;11.452;2023-04-24T06:11:59;10.60;99.90
30473;DHT22;17263;48.160;11.452;2023-04-24T06:14:25;10.70;99.90
30473;DHT22;17263;48.160;11.452;2023-04-24T06:16:51;10.70;99.90
30473;DHT22;17263;48.160;11.452;2023-04-24T06:19:17;10.90;99.90
30473;DHT22;17263;48.160;11.452;2023-04-24T06:21:43;10.90;99.90
30473;DHT22;17263;48.160;11.452;2023-04-24T06:24:09;11.00;99.90
30473;DHT22;17263;48.160;11.452;2023-04-24T06:26:36;11.00;99.90
30473;DHT22;17263;48.160;11.452;2023-04-24T06:29:02;11.00;99.90
30473;DHT22;17263;48.160;11.452;2023-04-24T06:31:28;11.00;99.90
30473;DHT22;17263;48.160;11.452;2023-04-24T06:33:54;11.00;99.90
30473;DHT22;17263;48.160;11.452;2023-04-24T06:36:20;11.10;99.90
30473;DHT22;17263;48.160;11.452;2023-04-24T06:38:46;11.10;99.90
30473;DHT22;17263;48.160;11.452;2023-04-24T06:41:12;11.20;99.90
30473;DHT22;17263;48.160;11.452;2023-04-24T06:43:38;11.20;99.90
30473;DHT22;17263;48.160;11.452;2023-04-24T06:46:04;11.40;99.90
30473;DHT22;17263;48.160;11.452;2023-04-24T06:48:30;11.50;99.90
30473;DHT22;17263;48.160;11.452;2023-04-24T06:50:56;11.60;99.90
30473;DHT22;17263;48.160;11.452;2023-04-24T06:53:22;11.90;99.90
30473;DHT22;17263;48.160;11.452;2023-04-24T06:55:48;12.10;99.90
30473;DHT22;17263;48.160;11.452;2023-04-24T06:58:14;12.20;99.90
30473;DHT22;17263;48.160;11.452;2023-04-24T07:00:41;12.20;99.90
30473;DHT22;17263;48.160;11.452;2023-04-24T07:03:07;12.20;99.90
30473;DHT22;17263;48.160;11.452;2023-04-24T07:05:33;12.30;99.90
30473;DHT22;17263;48.160;11.452;2023-04-24T07:08:01;12.60;99.90
30473;DHT22;17263;48.160;11.452;2023-04-24T07:10:27;12.90;99.90
30473;DHT22;17263;48.160;11.452;2023-04-24T07:12:55;13.20;99.90
30473;DHT22;17263;48.160;11.452;2023-04-24T07:15:22;13.30;99.90
30473;DHT22;17263;48.160;11.452;2023-04-24T07:17:49;13.40;99.90
30473;DHT22;17263;48.160;11.452;2023-04-24T07:20:15;13.30;99.90
30473;DHT22;17263;48.160;11.452;2023-04-24T07:22:42;13.20;99.90
30473;DHT22;17263;48.160;11.452;2023-04-24T07:25:08;13.10;99.90
30473;DHT22;17263;48.160;11.452;2023-04-24T07:27:34;13.00;99.90
30473;DHT22;17263;48.160;11.452;2023-04-24T07:30:03;12.80;99.90
30473;DHT22;17263;48.160;11.452;2023-04-24T07:32:30;12.70;99.90
30473;DHT22;17263;48.160;11.452;2023-04-24T07:34:56;12.60;99.90
30473;DHT22;17263;48.160;11.452;2023-04-24T07:37:22;12.50;99.90
30473;DHT22;17263;48.160;11.452;2023-04-24T07:39:49;12.50;99.90
30473;DHT22;17263;48.160;11.452;2023-04-24T07:42:15;12.40;99.90
30473;DHT22;17263;48.160;11.452;2023-04-24T07:44:41;12.40;99.90
30473;DHT22;17263;48.160;11.452;2023-04-24T07:47:07;12.30;99.90
30473;DHT22;17263;48.160;11.452;2023-04-24T07:49:33;12.30;99.90
30473;DHT22;17263;48.160;11.452;2023-04-24T07:52:00;12.40;99.90
30473;DHT22;17263;48.160;11.452;2023-04-24T07:54:28;12.40;99.90
30473;DHT22;17263;48.160;11.452;2023-04-24T07:56:54;12.40;99.90
30473;DHT22;17263;48.160;11.452;2023-04-24T07:59:20;12.40;99.90
30473;DHT22;17263;48.160;11.452;2023-04-24T08:01:46;12.40;99.90
30473;DHT22;17263;48.160;11.452;2023-04-24T08:04:12;12.40;99.90
30473;DHT22;17263;48.160;11.452;2023-04-24T08:06:38;12.50;99.90
30473;DHT22;17263;48.160;11.452;2023-04-24T08:09:04;12.60;99.90
30473;DHT22;17263;48.160;11.452;2023-04-24T08:11:30;12.60;99.90
30473;DHT22;17263;48.160;11.452;2023-04-24T08:13:57;12.70;99.90
30473;DHT22;17263;48.160;11.452;2023-04-24T08:16:23;12.70;99.90
30473;DHT22;17263;48.160;11.452;2023-04-24T08:18:50;12.60;99.90
30473;DHT22;17263;48.160;11.452;2023-04-24T08:21:16;12.50;99.90
30473;DHT22;17263;48.160;11.452;2023-04-24T08:23:45;12.40;99.90
30473;DHT22;17263;48.160;11.452;2023-04-24T08:26:12;12.40;99.90
30473;DHT22;17263;48.160;11.452;2023-04-24T08:28:38;12.30;99.90
30473;DHT22;17263;48.160;11.452;2023-04-24T08:31:05;12.20;99.90
30473;DHT22;17263;48.160;11.452;2023-04-24T08:33:31;12.10;99.90
30473;DHT22;17263;48.160;11.452;2023-04-24T08:36:04;11.90;99.90
30473;DHT22;17263;48.160;11.452;2023-04-24T08:38:30;11.80;99.90
30473;DHT22;17263;48.160;11.452;2023-04-24T08:40:58;11.70;99.90
30473;DHT22;17263;48.160;11.452;2023-04-24T08:43:25;11.70;99.90
30473;DHT22;17263;48.160;11.452;2023-04-24T08:45:52;11.90;99.90
30473;DHT22;17263;48.160;11.452;2023-04-24T08:48:18;12.10;99.90
30473;DHT22;17263;48.160;11.452;2023-04-24T08:50:45;12.30;99.90
30473;DHT22;17263;48.160;11.452;2023-04-24T08:53:11;12.40;99.90
30473;DHT22;17263;48.160;11.452;2023-04-24T08:55:37;12.50;99.90
30473;DHT22;17263;48.160;11.452;2023-04-24T08:58:04;12.50;99.90
30473;DHT22;17263;48.160;11.452;2023-04-24T09:00:30;12.40;99.90
30473;DHT22;17263;48.160;11.452;2023-04-24T09:02:56;12.20;99.90
30473;DHT22;17263;48.160;11.452;2023-04-24T09:05:23;12.10;99.90
30473;DHT22;17263;48.160;11.452;2023-04-24T09:07:56;12.00;99.90
30473;DHT22;17263;48.160;11.452;2023-04-24T09:10:24;12.00;99.90
30473;DHT22;17263;48.160;11.452;2023-04-24T09:12:51;12.00;99.90
30473;DHT22;17263;48.160;11.452;2023-04-24T09:15:19;12.10;99.90
30473;DHT22;17263;48.160;11.452;2023-04-24T09:17:46;12.20;99.90
30473;DHT22;17263;48.160;11.452;2023-04-24T09:20:13;12.20;99.90
30473;DHT22;17263;48.160;11.452;2023-04-24T09:22:39;12.30;99.90
30473;DHT22;17263;48.160;11.452;2023-04-24T09:25:07;12.40;99.90
30473;DHT22;17263;48.160;11.452;2023-04-24T09:27:34;12.50;99.90
30473;DHT22;17263;48.160;11.452;2023-04-24T09:30:01;12.50;99.90
30473;DHT22;17263;48.160;11.452;2023-04-24T09:32:28;12.60;99.90
30473;DHT22;17263;48.160;11.452;2023-04-24T09:35:10;12.60;99.90
30473;DHT22;17263;48.160;11.452;2023-04-24T09:37:42;12.90;99.90
30473;DHT22;17263;48.160;11.452;2023-04-24T09:40:13;13.00;99.90
30473;DHT22;17263;48.160;11.452;2023-04-24T09:42:43;13.00;99.90
30473;DHT22;17263;48.160;11.452;2023-04-24T09:45:10;13.10;99.90
30473;DHT22;17263;48.160;11.452;2023-04-24T09:47:40;13.20;99.90
30473;DHT22;17263;48.160;11.452;2023-04-24T09:50:14;13.40;99.90
30473;DHT22;17263;48.160;11.452;2023-04-24T09:52:43;13.60;99.90
30473;DHT22;17263;48.160;11.452;2023-04-24T09:55:19;13.80;99.90
30473;DHT22;17263;48.160;11.452;2023-04-24T09:57:50;14.00;99.90
30473;DHT22;17263;48.160;11.452;2023-04-24T10:00:22;14.10;99.90
30473;DHT22;17263;48.160;11.452;2023-04-24T10:02:58;14.20;99.90
30473;DHT22;17263;48.160;11.452;2023-04-24T10:05:31;14.20;99.90
30473;DHT22;17263;48.160;11.452;2023-04-24T10:08:05;14.30;99.90
30473;DHT22;17263;48.160;11.452;2023-04-24T10:10:33;14.20;99.90
30473;DHT22;17263;48.160;11.452;2023-04-24T10:13:00;14.20;99.90
30473;DHT22;17263;48.160;11.452;2023-04-24T10:15:27;14.20;99.90
30473;DHT22;17263;48.160;11.452;2023-04-24T10:17:53;14.20;99.90
30473;DHT22;17263;48.160;11.452;2023-04-24T10:20:23;14.20;99.90
30473;DHT22;17263;48.160;11.452;2023-04-24T10:22:52;14.10;99.90
30473;DHT22;17263;48.160;11.452;2023-04-24T10:25:26;14.10;99.90
30473;DHT22;17263;48.160;11.452;2023-04-24T10:27:53;14.10;99.90
30473;DHT22;17263;48.160;11.452;2023-04-24T10:30:23;14.20;99.90
30473;DHT22;17263;48.160;11.452;2023-04-24T10:32:49;14.30;99.90
30473;DHT22;17263;48.160;11.452;2023-04-24T10:35:16;14.20;99.90
30473;DHT22;17263;48.160;11.452;2023-04-24T10:37:50;14.20;99.90
30473;DHT22;17263;48.160;11.452;2023-04-24T10:40:26;14.10;99.90
30473;DHT22;17263;48.160;11.452;2023-04-24T10:42:52;13.90;99.90
30473;DHT22;17263;48.160;11.452;2023-04-24T10:45:21;13.70;99.90
30473;DHT22;17263;48.160;11.452;2023-04-24T10:48:03;13.20;99.90
30473;DHT22;17263;48.160;11.452;2023-04-24T10:50:50;12.80;99.90
30473;DHT22;17263;48.160;11.452;2023-04-24T10:53:21;12.40;99.90
30473;DHT22;17263;48.160;11.452;2023-04-24T10:56:04;11.90;99.90
30473;DHT22;17263;48.160;11.452;2023-04-24T10:58:48;11.50;99.90
30473;DHT22;17263;48.160;11.452;2023-04-24T11:01:29;11.40;99.90
30473;DHT22;17263;48.160;11.452;2023-04-24T11:04:02;11.30;99.90
30473;DHT22;17263;48.160;11.452;2023-04-24T11:06:36;11.40;99.90
30473;DHT22;17263;48.160;11.452;2023-04-24T11:09:10;11.60;99.90
30473;DHT22;17263;48.160;11.452;2023-04-24T11:11:38;11.70;99.90
30473;DHT22;17263;48.160;11.452;2023-04-24T11:14:10;12.00;99.90
30473;DHT22;17263;48.160;11.452;2023-04-24T11:24:31;13.10;99.90
30473;DHT22;17263;48.160;11.452;2023-04-24T11:27:01;13.40;99.90
30473;DHT22;17263;48.160;11.452;2023-04-24T11:32:33;13.60;99.90
30473;DHT22;17263;48.160;11.452;2023-04-24T11:35:05;13.60;99.90
30473;DHT22;17263;48.160;11.452;2023-04-24T11:40:04;13.70;99.90
30473;DHT22;17263;48.160;11.452;2023-04-24T11:42:41;13.70;99.90
30473;DHT22;17263;48.160;11.452;2023-04-24T11:45:14;13.90;99.90
30473;DHT22;17263;48.160;11.452;2023-04-24T11:47:42;14.10;99.90
30473;DHT22;17263;48.160;11.452;2023-04-24T11:50:13;14.30;99.90
30473;DHT22;17263;48.160;11.452;2023-04-24T11:52:41;14.30;99.90
30473;DHT22;17263;48.160;11.452;2023-04-24T11:55:23;14.30;99.90
30473;DHT22;17263;48.160;11.452;2023-04-24T11:57:54;14.40;99.90
30473;DHT22;17263;48.160;11.452;2023-04-24T12:00:24;14.40;99.90
30473;DHT22;17263;48.160;11.452;2023-04-24T12:02:51;14.40;99.90
30473;DHT22;17263;48.160;11.452;2023-04-24T12:05:21;14.50;99.90
30473;DHT22;17263;48.160;11.452;2023-04-24T12:07:47;14.40;99.90
30473;DHT22;17263;48.160;11.452;2023-04-24T12:10:13;14.30;99.90
30473;DHT22;17263;48.160;11.452;2023-04-24T12:12:40;14.30;99.90
30473;DHT22;17263;48.160;11.452;2023-04-24T12:15:07;14.40;99.90
30473;DHT22;17263;48.160;11.452;2023-04-24T12:17:34;14.40;99.90
30473;DHT22;17263;48.160;11.452;2023-04-24T12:20:04;14.40;99.90
30473;DHT22;17263;48.160;11.452;2023-04-24T12:22:50;14.50;99.90
30473;DHT22;17263;48.160;11.452;2023-04-24T12:25:18;14.70;99.90
30473;DHT22;17263;48.160;11.452;2023-04-24T12:27:45;15.00;99.90
30473;DHT22;17263;48.160;11.452;2023-04-24T12:30:14;15.30;99.90
30473;DHT22;17263;48.160;11.452;2023-04-24T12:32:42;15.50;99.90
30473;DHT22;17263;48.160;11.452;2023-04-24T12:35:09;15.70;99.90
30473;DHT22;17263;48.160;11.452;2023-04-24T12:37:35;15.80;99.90
30473;DHT22;17263;48.160;11.452;2023-04-24T12:40:12;15.80;99.90
30473;DHT22;17263;48.160;11.452;2023-04-24T12:42:46;15.80;99.90
30473;DHT22;17263;48.160;11.452;2023-04-24T12:45:13;15.70;99.90
30473;DHT22;17263;48.160;11.452;2023-04-24T12:47:40;15.70;99.90
30473;DHT22;17263;48.160;11.452;2023-04-24T12:50:11;15.60;99.90
30473;DHT22;17263;48.160;11.452;2023-04-24T12:52:38;15.50;99.90
30473;DHT22;17263;48.160;11.452;2023-04-24T12:55:05;15.60;99.90
30473;DHT22;17263;48.160;11.452;2023-04-24T12:57:35;15.60;99.90
30473;DHT22;17263;48.160;11.452;2023-04-24T13:00:02;15.50;99.90
30473;DHT22;17263;48.160;11.452;2023-04-24T13:02:29;15.50;99.90
30473;DHT22;17263;48.160;11.452;2023-04-24T13:04:57;15.40;99.90
30473;DHT22;17263;48.160;11.452;2023-04-24T13:07:24;15.20;99.90
30473;DHT22;17263;48.160;11.452;2023-04-24T13:09:51;14.90;99.90
30473;DHT22;17263;48.160;11.452;2023-04-24T13:12:17;14.70;99.90
30473;DHT22;17263;48.160;11.452;2023-04-24T13:14:43;14.60;99.90
30473;DHT22;17263;48.160;11.452;2023-04-24T13:17:09;14.60;99.90
30473;DHT22;17263;48.160;11.452;2023-04-24T13:19:37;14.60;99.90
30473;DHT22;17263;48.160;11.452;2023-04-24T13:22:04;14.80;99.90
30473;DHT22;17263;48.160;11.452;2023-04-24T13:24:30;14.70;99.90
30473;DHT22;17263;48.160;11.452;2023-04-24T13:26:57;14.80;99.90
30473;DHT22;17263;48.160;11.452;2023-04-24T13:29:23;14.90;99.90
30473;DHT22;17263;48.160;11.452;2023-04-24T13:31:50;15.00;99.90
30473;DHT22;17263;48.160;11.452;2023-04-24T13:34:17;15.00;99.90
30473;DHT22;17263;48.160;11.452;2023-04-24T13:36:44;15.10;99.90
30473;DHT22;17263;48.160;11.452;2023-04-24T13:39:10;15.00;99.90
30473;DHT22;17263;48.160;11.452;2023-04-24T13:41:36;15.00;99.90
30473;DHT22;17263;48.160;11.452;2023-04-24T13:44:03;14.80;99.90
30473;DHT22;17263;48.160;11.452;2023-04-24T13:46:29;14.80;99.90
30473;DHT22;17263;48.160;11.452;2023-04-24T13:48:56;14.80;99.90
30473;DHT22;17263;48.160;11.452;2023-04-24T13:51:23;14.80;99.90
30473;DHT22;17263;48.160;11.452;2023-04-24T13:53:49;15.00;99.90
30473;DHT22;17263;48.160;11.452;2023-04-24T13:56:15;15.00;99.90
30473;DHT22;17263;48.160;11.452;2023-04-24T13:58:41;15.10;99.90
30473;DHT22;17263;48.160;11.452;2023-04-24T14:01:07;15.10;99.90
30473;DHT22;17263;48.160;11.452;2023-04-24T14:03:34;15.10;99.90
30473;DHT22;17263;48.160;11.452;2023-04-24T14:06:00;15.10;99.90
30473;DHT22;17263;48.160;11.452;2023-04-24T14:08:26;15.00;99.90
30473;DHT22;17263;48.160;11.452;2023-04-24T14:10:52;15.00;99.90
30473;DHT22;17263;48.160;11.452;2023-04-24T14:13:18;15.00;99.90
30473;DHT22;17263;48.160;11.452;2023-04-24T14:15:44;14.90;99.90
30473;DHT22;17263;48.160;11.452;2023-04-24T14:18:10;14.90;99.90
30473;DHT22;17263;48.160;11.452;2023-04-24T14:20:36;15.00;99.90
30473;DHT22;17263;48.160;11.452;2023-04-24T14:23:03;15.00;99.90
30473;DHT22;17263;48.160;11.452;2023-04-24T14:25:29;15.00;99.90
30473;DHT22;17263;48.160;11.452;2023-04-24T14:27:56;15.00;99.90
30473;DHT22;17263;48.160;11.452;2023-04-24T14:30:22;14.90;99.90
30473;DHT22;17263;48.160;11.452;2023-04-24T14:32:48;14.90;99.90
30473;DHT22;17263;48.160;11.452;2023-04-24T14:35:14;15.00;99.90
30473;DHT22;17263;48.160;11.452;2023-04-24T14:37:40;14.90;99.90
30473;DHT22;17263;48.160;11.452;2023-04-24T14:40:08;14.80;99.90
30473;DHT22;17263;48.160;11.452;2023-04-24T14:42:35;14.80;99.90
30473;DHT22;17263;48.160;11.452;2023-04-24T14:45:01;14.90;99.90
30473;DHT22;17263;48.160;11.452;2023-04-24T14:47:27;14.80;99.70
30473;DHT22;17263;48.160;11.452;2023-04-24T14:49:55;14.70;99.30
30473;DHT22;17263;48.160;11.452;2023-04-24T14:52:21;14.60;99.90
30473;DHT22;17263;48.160;11.452;2023-04-24T14:54:47;14.60;99.90
30473;DHT22;17263;48.160;11.452;2023-04-24T14:57:13;14.70;99.80
30473;DHT22;17263;48.160;11.452;2023-04-24T14:59:39;14.80;99.90
30473;DHT22;17263;48.160;11.452;2023-04-24T15:02:06;14.80;99.90
30473;DHT22;17263;48.160;11.452;2023-04-24T15:04:32;14.90;99.20
30473;DHT22;17263;48.160;11.452;2023-04-24T15:06:58;14.90;98.50
30473;DHT22;17263;48.160;11.452;2023-04-24T15:09:24;14.90;98.40
30473;DHT22;17263;48.160;11.452;2023-04-24T15:11:51;14.90;97.90
30473;DHT22;17263;48.160;11.452;2023-04-24T15:14:18;14.90;96.90
30473;DHT22;17263;48.160;11.452;2023-04-24T15:16:44;15.10;97.40
30473;DHT22;17263;48.160;11.452;2023-04-24T15:19:11;15.30;97.60
30473;DHT22;17263;48.160;11.452;2023-04-24T15:21:37;15.40;97.30
30473;DHT22;17263;48.160;11.452;2023-04-24T15:24:05;15.40;97.00
30473;DHT22;17263;48.160;11.452;2023-04-24T15:26:31;15.40;95.60
30473;DHT22;17263;48.160;11.452;2023-04-24T15:28:57;15.30;95.50
30473;DHT22;17263;48.160;11.452;2023-04-24T15:31:23;15.30;94.10